Time;durP1;ratioP1;P1;durP2;ratioP2;P2;SDS_P1;SDS_P2;PMS_P1;PMS_P2;Temp;Humidity;BMP_temperature;BMP_pressure;BME280_temperature;BME280_humidity;BME280_pressure;Samples;Min_cycle;Max_cycle;Signal;HPM_P1;HPM_P2
2022/05/14 00:08:28;;;;;;;4.18;1.63;;;;;;;12.19;77.75;100890.47;20980643;28;20136;-67
2022/05/14 00:18:30;;;;;;;4.43;1.50;;;;;;;11.97;78.24;100893.38;20988864;28;20049;-67
2022/05/14 00:28:33;;;;;;;5.00;1.42;;;;;;;11.90;77.89;100891.72;20999741;28;20045;-67
2022/05/14 00:38:34;;;;;;;6.22;1.65;;;;;;;11.74;78.80;100880.53;20996945;28;20040;-67
2022/05/14 00:48:39;;;;;;;3.20;1.50;;;;;;;11.73;78.43;100883.16;20996738;28;20048;-67
2022/05/14 00:58:51;;;;;;;6.10;1.48;;;;;;;11.71;78.73;100887.56;20995738;28;20057;-67
2022/05/14 01:08:53;;;;;;;4.78;1.45;;;;;;;11.65;79.75;100890.28;20994953;28;20048;-67
2022/05/14 01:18:54;;;;;;;4.63;1.60;;;;;;;11.48;80.79;100883.47;20994496;28;20056;-67
2022/05/14 01:28:58;;;;;;;3.13;1.45;;;;;;;11.32;81.75;100875.81;20992849;28;20143;-67
2022/05/14 01:39:00;;;;;;;6.90;1.70;;;;;;;11.14;82.99;100887.34;20992275;28;20048;-68
2022/05/14 01:49:03;;;;;;;5.72;1.85;;;;;;;11.09;82.88;100879.53;20988620;28;20040;-67
2022/05/14 01:59:05;;;;;;;5.68;1.90;;;;;;;10.93;84.75;100872.72;20992769;28;20592;-67
2022/05/14 02:09:08;;;;;;;5.65;1.90;;;;;;;10.90;86.10;100870.13;20991626;28;20181;-68
2022/05/14 02:19:10;;;;;;;5.80;1.88;;;;;;;10.83;88.27;100871.94;20990202;28;20045;-67
2022/05/14 02:29:12;;;;;;;9.38;2.10;;;;;;;10.71;90.60;100867.66;20989725;28;20105;-68
2022/05/14 02:39:13;;;;;;;8.80;2.50;;;;;;;10.52;92.99;100887.88;20984036;28;20059;-69
2022/05/14 02:49:15;;;;;;;6.07;2.45;;;;;;;10.41;95.12;100887.13;20987539;28;20078;-69
2022/05/14 02:59:17;;;;;;;7.60;2.55;;;;;;;10.41;93.90;100887.13;20986974;28;20508;-69
2022/05/14 03:09:19;;;;;;;5.32;2.20;;;;;;;10.35;93.67;100884.53;20985853;28;20044;-69
2022/05/14 03:19:20;;;;;;;5.95;2.22;;;;;;;10.19;95.13;100896.81;20985298;28;20056;-69
2022/05/14 03:29:22;;;;;;;6.53;2.40;;;;;;;10.15;94.69;100891.59;20985046;28;20055;-68
2022/05/14 03:39:24;;;;;;;4.55;2.33;;;;;;;10.08;95.03;100889.91;20983572;28;20044;-69
2022/05/14 03:49:25;;;;;;;10.48;2.60;;;;;;;9.99;95.84;100903.91;20983383;28;20054;-69
2022/05/14 03:59:27;;;;;;;6.25;2.72;;;;;;;9.96;96.57;100912.63;20983461;28;20389;-69
2022/05/14 04:09:28;;;;;;;8.27;2.83;;;;;;;10.02;96.48;100907.38;20969196;22;20045;-69
2022/05/14 04:19:30;;;;;;;8.00;2.60;;;;;;;10.01;95.17;100905.66;20941324;28;20045;-67
2022/05/14 04:29:31;;;;;;;7.80;3.00;;;;;;;10.10;95.17;100914.31;20940656;28;20084;-67
2022/05/14 04:39:33;;;;;;;9.02;2.65;;;;;;;10.51;93.65;100912.34;20940347;28;20055;-67
2022/05/14 04:49:46;;;;;;;5.32;2.45;;;;;;;10.87;91.82;100920.78;20940897;28;20119;-68
2022/05/14 04:59:47;;;;;;;7.65;2.78;;;;;;;10.96;90.54;100918.06;20937130;28;20049;-67
2022/05/14 05:09:48;;;;;;;6.25;2.20;;;;;;;11.22;89.26;100919.59;20952587;28;20216;-67
2022/05/14 05:19:50;;;;;;;6.18;2.20;;;;;;;11.52;88.40;100921.88;20955376;28;20049;-68
2022/05/14 05:29:51;;;;;;;3.58;1.90;;;;;;;11.72;86.93;100923.41;20954095;28;20045;-67
2022/05/14 05:39:53;;;;;;;5.88;2.10;;;;;;;11.97;85.32;100932.72;20951562;28;20053;-67
2022/05/14 05:49:54;;;;;;;6.03;2.17;;;;;;;12.32;83.55;100940.16;20952446;28;20055;-67
2022/05/14 06:00:00;;;;;;;4.93;2.10;;;;;;;12.69;82.81;100936.09;20951275;28;20052;-67
2022/05/14 06:10:04;;;;;;;4.43;1.80;;;;;;;12.95;81.86;100941.78;20950360;28;20056;-67
2022/05/14 06:20:14;;;;;;;8.77;1.92;;;;;;;13.29;80.39;100949.13;20949423;28;20054;-67
2022/05/14 06:30:16;;;;;;;4.20;1.30;;;;;;;13.66;80.18;100946.69;20948800;28;20246;-68
2022/05/14 06:40:17;;;;;;;6.10;1.60;;;;;;;13.83;77.51;100946.31;20947942;28;20443;-67
2022/05/14 06:50:19;;;;;;;4.57;1.40;;;;;;;14.35;74.81;100951.34;20947665;28;20049;-67
2022/05/14 07:00:21;;;;;;;3.95;1.30;;;;;;;14.76;71.72;100956.59;20945066;28;20079;-68
2022/05/14 07:10:22;;;;;;;4.22;1.23;;;;;;;15.15;71.24;100960.03;20926784;28;20041;-68
2022/05/14 07:20:24;;;;;;;6.05;1.38;;;;;;;15.33;67.18;100958.66;20936614;28;20501;-67
2022/05/14 07:30:25;;;;;;;4.18;1.30;;;;;;;15.84;66.81;100948.47;20935444;28;20040;-67
2022/05/14 07:40:31;;;;;;;6.35;1.30;;;;;;;16.12;65.48;100943.25;20933138;28;20154;-67
2022/05/14 07:50:33;;;;;;;3.05;1.20;;;;;;;16.56;63.45;100946.28;20936312;28;20056;-68
2022/05/14 08:00:35;;;;;;;6.57;1.20;;;;;;;16.81;61.59;100943.75;20935220;28;20041;-66
2022/05/14 08:10:36;;;;;;;3.70;1.42;;;;;;;17.08;59.42;100939.34;20933362;28;20051;-67
2022/05/14 08:20:41;;;;;;;6.45;1.50;;;;;;;17.42;59.42;100943.47;20934143;28;20056;-67
2022/05/14 08:30:43;;;;;;;5.35;1.55;;;;;;;17.85;57.33;100937.50;20928832;28;20071;-66
2022/05/14 08:41:03;;;;;;;5.78;1.40;;;;;;;18.21;56.62;100923.78;20941722;28;20052;-67
2022/05/14 08:51:08;;;;;;;7.22;1.50;;;;;;;18.44;51.54;100931.69;20946347;28;20063;-67
2022/05/14 09:01:15;;;;;;;7.28;1.70;;;;;;;18.73;50.14;100920.84;20944443;28;20052;-68
2022/05/14 09:11:20;;;;;;;9.32;2.25;;;;;;;18.82;51.27;100908.06;20943405;28;20477;-67
2022/05/14 09:21:28;;;;;;;6.28;1.55;;;;;;;18.58;50.44;100907.25;20946205;28;20493;-67
2022/05/14 09:31:33;;;;;;;5.72;1.63;;;;;;;19.02;49.10;100912.56;20945034;28;20103;-67
2022/05/14 09:41:45;;;;;;;3.22;1.33;;;;;;;19.64;50.73;100895.69;20944425;28;20956;-68
2022/05/14 09:51:53;;;;;;;7.25;1.60;;;;;;;19.45;48.74;100898.28;20944352;28;20485;-67
2022/05/14 10:02:01;;;;;;;4.93;1.50;;;;;;;20.10;46.91;100896.19;20943621;28;20501;-67
2022/05/14 10:12:15;;;;;;;5.00;1.38;;;;;;;20.27;45.70;100887.44;21012063;22;20052;-74
2022/05/14 10:26:44;;;;;;;5.85;1.58;;;;;;;20.42;44.02;100878.69;21023377;28;20456;-72
2022/05/14 10:33:01;;;;;;;4.65;1.55;;;;;;;20.09;45.03;100875.00;21021489;28;20085;-71
2022/05/14 10:43:16;;;;;;;4.72;1.08;;;;;;;20.54;43.74;100866.59;21021923;28;20052;-72
2022/05/14 10:53:17;;;;;;;3.58;1.10;;;;;;;20.77;38.13;100853.97;21023823;28;20048;-74
2022/05/14 11:03:31;;;;;;;3.65;1.17;;;;;;;20.72;39.03;100844.41;21022036;28;20450;-74
2022/05/14 11:13:34;;;;;;;6.18;1.65;;;;;;;20.82;38.81;100835.97;21021879;28;20505;-74
2022/05/14 11:23:59;;;;;;;7.18;1.60;;;;;;;21.20;37.92;100833.97;21021422;28;20055;-76
2022/05/14 11:34:17;;;;;;;11.27;2.17;;;;;;;21.39;38.38;100825.88;21020626;28;20044;-75
2022/05/14 11:44:39;;;;;;;4.97;1.35;;;;;;;21.60;36.73;100816.69;21017901;28;20055;-74
2022/05/14 11:55:03;;;;;;;4.28;1.02;;;;;;;21.23;40.20;100824.00;21019094;28;20048;-74
2022/05/14 12:05:11;;;;;;;7.68;1.63;;;;;;;21.93;36.21;100802.44;21016416;28;20557;-76
2022/05/14 12:15:21;;;;;;;5.88;1.30;;;;;;;22.19;36.82;100790.34;21023628;28;20048;-74
2022/05/14 12:25:41;;;;;;;6.97;1.67;;;;;;;22.13;37.78;100783.53;21034456;28;20135;-74
2022/05/14 12:35:59;;;;;;;3.75;1.10;;;;;;;22.05;36.01;100776.91;21032936;28;20055;-74
2022/05/14 12:46:06;;;;;;;4.30;1.20;;;;;;;22.47;35.97;100758.44;21031046;28;20481;-74
2022/05/14 12:56:09;;;;;;;8.50;1.70;;;;;;;22.67;36.26;100751.88;21030111;28;20063;-75
2022/05/14 13:06:19;;;;;;;7.78;1.52;;;;;;;22.68;36.78;100740.25;21026837;28;20040;-74
2022/05/14 13:16:24;;;;;;;9.80;1.30;;;;;;;22.52;34.81;100743.00;21026069;28;20048;-75
2022/05/14 13:26:31;;;;;;;4.10;1.30;;;;;;;22.86;33.19;100724.06;21030684;28;20052;-74
2022/05/14 13:37:16;;;;;;;5.28;1.33;;;;;;;22.91;33.37;100711.31;21029429;28;20085;-74
2022/05/14 13:46:59;;;;;;;;;;;;;;;23.23;34.88;100695.94;21024137;28;20044;-74
2022/05/14 13:57:12;;;;;;;5.75;1.75;;;;;;;23.34;34.09;100692.59;21028745;28;19927;-74
2022/05/14 14:07:13;;;;;;;6.63;1.55;;;;;;;23.42;36.84;100682.25;21028475;28;20528;-75
2022/05/14 14:17:15;;;;;;;5.55;1.63;;;;;;;23.23;36.01;100670.06;21026035;28;20507;-76
2022/05/14 14:27:17;;;;;;;5.68;1.40;;;;;;;23.66;32.61;100656.59;21025687;28;20117;-77
2022/05/14 14:37:19;;;;;;;5.53;1.20;;;;;;;23.52;32.92;100648.59;21023137;28;20049;-75
2022/05/14 14:47:23;;;;;;;3.42;1.30;;;;;;;23.59;34.76;100644.59;21021954;28;20130;-78
2022/05/14 14:57:25;;;;;;;7.20;1.87;;;;;;;23.73;33.75;100639.22;21023482;28;20055;-75
2022/05/14 15:07:27;;;;;;;6.03;1.42;;;;;;;23.51;35.74;100636.22;21022268;28;20056;-76
2022/05/14 15:17:28;;;;;;;6.00;1.77;;;;;;;23.68;36.76;100619.09;21016762;28;20530;-73
2022/05/14 15:27:30;;;;;;;7.72;1.75;;;;;;;23.70;35.60;100620.69;21020427;28;20122;-72
2022/05/14 15:37:32;;;;;;;4.82;1.65;;;;;;;23.94;36.47;100614.66;21019496;28;20044;-73
2022/05/14 15:47:35;;;;;;;6.70;2.03;;;;;;;24.27;37.83;100609.66;21018831;28;20562;-73
2022/05/14 15:57:37;;;;;;;7.53;1.60;;;;;;;24.21;35.48;100617.28;21011802;28;20048;-74
2022/05/14 16:07:39;;;;;;;5.82;1.67;;;;;;;24.28;34.61;100614.03;21056696;22;20177;-70
2022/05/14 16:17:41;;;;;;;6.15;1.75;;;;;;;24.28;34.77;100595.31;21056157;28;20467;-70
2022/05/14 16:27:43;;;;;;;6.60;1.95;;;;;;;24.27;33.56;100585.56;21057712;28;20458;-68
2022/05/14 16:37:45;;;;;;;5.57;1.40;;;;;;;24.29;34.69;100594.38;21057663;28;20051;-68
2022/05/14 16:47:46;;;;;;;8.50;2.15;;;;;;;24.23;34.77;100584.06;21053941;28;20101;-69
2022/05/14 16:57:48;;;;;;;4.07;1.95;;;;;;;24.20;36.46;100592.34;21059411;28;20048;-69
2022/05/14 17:07:50;;;;;;;5.07;1.70;;;;;;;24.03;37.00;100589.97;21072405;28;20048;-69
2022/05/14 17:17:54;;;;;;;6.45;2.28;;;;;;;23.76;36.34;100582.88;21070160;28;20488;-68
2022/05/14 17:27:58;;;;;;;5.22;1.95;;;;;;;23.65;36.81;100584.53;21071651;28;20055;-71
2022/05/14 17:48:20;;;;;;;9.43;2.25;;;;;;;23.36;38.91;100589.13;21067966;28;20131;-69
2022/05/14 17:58:23;;;;;;;8.18;2.00;;;;;;;23.08;38.61;100585.56;21070200;28;20077;-69
2022/05/14 18:08:24;;;;;;;6.97;2.30;;;;;;;22.60;40.05;100590.38;21068368;28;20047;-69
2022/05/14 18:18:26;;;;;;;9.55;2.13;;;;;;;22.45;40.50;100583.34;21066839;28;20052;-69
2022/05/14 18:28:32;;;;;;;5.80;2.33;;;;;;;22.09;42.21;100589.13;21066051;28;20230;-67
2022/05/14 18:38:39;;;;;;;7.47;2.47;;;;;;;21.62;46.49;100596.31;21064321;28;20040;-67
2022/05/14 18:48:41;;;;;;;10.15;2.78;;;;;;;21.15;50.36;100591.03;21064725;28;20051;-67
2022/05/14 18:58:42;;;;;;;4.68;2.08;;;;;;;20.54;53.42;100602.38;21063772;28;20051;-67
2022/05/14 19:08:44;;;;;;;6.90;2.42;;;;;;;20.12;55.69;100607.22;21058648;28;20055;-67
2022/05/14 19:18:45;;;;;;;5.85;2.13;;;;;;;19.71;56.94;100612.84;21062760;28;20368;-67
2022/05/14 19:28:47;;;;;;;8.70;2.50;;;;;;;19.09;58.08;100626.50;21060572;28;20044;-67
2022/05/14 19:38:50;;;;;;;6.22;1.95;;;;;;;18.41;63.26;100644.59;21059478;28;20101;-66
2022/05/14 19:48:51;;;;;;;7.65;2.25;;;;;;;18.30;62.40;100634.50;21060068;28;20481;-67
2022/05/14 19:58:53;;;;;;;4.60;2.00;;;;;;;18.19;65.05;100642.88;21059200;28;20497;-67
2022/05/14 20:08:54;;;;;;;8.73;2.65;;;;;;;17.98;66.43;100643.81;21057229;28;20104;-68
2022/05/14 20:29:16;;;;;;;5.55;2.22;;;;;;;17.41;68.81;100666.44;21058223;28;20044;-66
2022/05/14 20:39:18;;;;;;;4.85;2.00;;;;;;;17.31;68.59;100668.59;21070354;28;20097;-67
2022/05/14 20:49:19;;;;;;;5.70;2.40;;;;;;;16.98;70.14;100681.31;21074050;28;20550;-68
2022/05/14 20:59:21;;;;;;;6.35;2.30;;;;;;;16.75;69.95;100687.47;21073262;28;20052;-68
2022/05/14 21:09:22;;;;;;;6.22;2.55;;;;;;;16.38;70.51;100678.19;21071134;28;20052;-68
2022/05/14 21:19:24;;;;;;;5.05;2.22;;;;;;;16.18;72.70;100680.66;21071251;28;20056;-68
2022/05/14 21:29:25;;;;;;;6.03;2.38;;;;;;;15.96;72.37;100671.75;21070822;28;20052;-66
2022/05/14 21:39:27;;;;;;;6.43;2.30;;;;;;;15.68;74.83;100680.56;21068582;28;20110;-66
2022/05/14 21:49:28;;;;;;;6.70;3.00;;;;;;;15.50;75.56;100681.13;21067110;28;20043;-67
2022/05/14 21:59:30;;;;;;;5.80;2.80;;;;;;;15.21;77.46;100676.75;21068117;28;20078;-66
2022/05/14 22:09:32;;;;;;;11.88;3.20;;;;;;;15.12;77.80;100681.38;21068433;22;20048;-76
2022/05/14 22:19:33;;;;;;;7.30;3.55;;;;;;;14.73;78.47;100687.81;21034700;28;20059;-76
2022/05/14 22:29:35;;;;;;;9.05;3.00;;;;;;;14.54;79.44;100690.94;21029653;28;20044;-74
2022/05/14 22:49:57;;;;;;;9.60;3.45;;;;;;;14.03;82.07;100688.75;21029404;28;20044;-74
2022/05/14 22:59:58;;;;;;;6.03;3.38;;;;;;;13.90;82.63;100689.13;21031597;28;20500;-74
2022/05/14 23:10:00;;;;;;;9.43;3.42;;;;;;;13.56;83.84;100687.28;21028596;28;20051;-74
2022/05/14 23:20:08;;;;;;;8.18;4.07;;;;;;;13.70;83.05;100684.31;21030257;28;20117;-74
2022/05/14 23:30:13;;;;;;;8.68;3.33;;;;;;;13.75;84.00;100679.78;21028426;28;20052;-76
2022/05/14 23:40:16;;;;;;;;;;;;;;;13.77;83.55;100667.47;21028805;28;20052;-75
2022/05/14 23:50:19;;;;;;;8.40;3.58;;;;;;;13.75;83.03;100667.53;21027819;28;19939;-75
